sensor_id;sensor_type;location;lat;lon;timestamp;P1;durP1;ratioP1;P2;durP2;ratioP2
26698;SDS011;14313;50.892;13.756;2022-08-19T00:01:46;30.58;;;25.73;;
26698;SDS011;14313;50.892;13.756;2022-08-19T00:04:13;37.17;;;26.70;;
26698;SDS011;14313;50.892;13.756;2022-08-19T00:06:41;34.88;;;28.23;;
26698;SDS011;14313;50.892;13.756;2022-08-19T00:09:09;35.10;;;28.90;;
26698;SDS011;14313;50.892;13.756;2022-08-19T00:11:36;38.08;;;28.55;;
26698;SDS011;14313;50.892;13.756;2022-08-19T00:14:02;37.03;;;30.45;;
26698;SDS011;14313;50.892;13.756;2022-08-19T00:16:28;37.70;;;29.23;;
26698;SDS011;14313;50.892;13.756;2022-08-19T00:18:54;39.67;;;29.85;;
26698;SDS011;14313;50.892;13.756;2022-08-19T00:21:20;41.60;;;30.25;;
26698;SDS011;14313;50.892;13.756;2022-08-19T00:23:46;36.85;;;28.90;;
26698;SDS011;14313;50.892;13.756;2022-08-19T00:26:11;39.75;;;30.27;;
26698;SDS011;14313;50.892;13.756;2022-08-19T00:28:37;37.30;;;29.70;;
26698;SDS011;14313;50.892;13.756;2022-08-19T00:31:03;39.50;;;30.08;;
26698;SDS011;14313;50.892;13.756;2022-08-19T00:33:29;41.17;;;29.40;;
26698;SDS011;14313;50.892;13.756;2022-08-19T00:35:58;36.00;;;28.75;;
26698;SDS011;14313;50.892;13.756;2022-08-19T00:38:24;37.33;;;28.77;;
26698;SDS011;14313;50.892;13.756;2022-08-19T00:40:49;33.00;;;28.38;;
26698;SDS011;14313;50.892;13.756;2022-08-19T00:43:18;34.95;;;29.15;;
26698;SDS011;14313;50.892;13.756;2022-08-19T00:45:45;36.53;;;28.38;;
26698;SDS011;14313;50.892;13.756;2022-08-19T00:48:10;38.38;;;29.80;;
26698;SDS011;14313;50.892;13.756;2022-08-19T00:50:36;34.50;;;27.00;;
26698;SDS011;14313;50.892;13.756;2022-08-19T00:53:08;36.00;;;28.27;;
26698;SDS011;14313;50.892;13.756;2022-08-19T00:55:35;37.13;;;28.20;;
26698;SDS011;14313;50.892;13.756;2022-08-19T00:58:07;35.72;;;28.08;;
26698;SDS011;14313;50.892;13.756;2022-08-19T01:00:36;33.83;;;28.38;;
26698;SDS011;14313;50.892;13.756;2022-08-19T01:03:10;34.38;;;27.60;;
26698;SDS011;14313;50.892;13.756;2022-08-19T01:05:39;35.70;;;29.02;;
26698;SDS011;14313;50.892;13.756;2022-08-19T01:08:07;33.45;;;27.45;;
26698;SDS011;14313;50.892;13.756;2022-08-19T01:10:35;37.90;;;27.05;;
26698;SDS011;14313;50.892;13.756;2022-08-19T01:13:04;31.88;;;26.65;;
26698;SDS011;14313;50.892;13.756;2022-08-19T01:15:31;32.92;;;27.48;;
26698;SDS011;14313;50.892;13.756;2022-08-19T01:18:00;34.85;;;27.23;;
26698;SDS011;14313;50.892;13.756;2022-08-19T01:20:29;35.67;;;26.35;;
26698;SDS011;14313;50.892;13.756;2022-08-19T01:22:55;33.90;;;27.88;;
26698;SDS011;14313;50.892;13.756;2022-08-19T01:25:24;37.42;;;26.90;;
26698;SDS011;14313;50.892;13.756;2022-08-19T01:27:52;34.25;;;25.77;;
26698;SDS011;14313;50.892;13.756;2022-08-19T01:30:23;33.60;;;26.42;;
26698;SDS011;14313;50.892;13.756;2022-08-19T01:32:51;35.65;;;26.85;;
26698;SDS011;14313;50.892;13.756;2022-08-19T01:35:17;31.48;;;26.95;;
26698;SDS011;14313;50.892;13.756;2022-08-19T01:37:48;37.95;;;29.38;;
26698;SDS011;14313;50.892;13.756;2022-08-19T01:40:17;34.55;;;26.98;;
26698;SDS011;14313;50.892;13.756;2022-08-19T01:42:45;35.10;;;26.67;;
26698;SDS011;14313;50.892;13.756;2022-08-19T01:45:12;36.70;;;27.98;;
26698;SDS011;14313;50.892;13.756;2022-08-19T01:47:38;31.40;;;27.55;;
26698;SDS011;14313;50.892;13.756;2022-08-19T01:50:05;32.65;;;27.90;;
26698;SDS011;14313;50.892;13.756;2022-08-19T01:52:32;33.70;;;29.13;;
26698;SDS011;14313;50.892;13.756;2022-08-19T01:55:00;37.97;;;30.52;;
26698;SDS011;14313;50.892;13.756;2022-08-19T01:57:25;45.13;;;32.25;;
26698;SDS011;14313;50.892;13.756;2022-08-19T01:59:51;38.88;;;30.70;;
26698;SDS011;14313;50.892;13.756;2022-08-19T02:02:16;42.55;;;31.50;;
26698;SDS011;14313;50.892;13.756;2022-08-19T02:04:42;40.72;;;31.08;;
26698;SDS011;14313;50.892;13.756;2022-08-19T02:07:07;41.55;;;31.48;;
26698;SDS011;14313;50.892;13.756;2022-08-19T02:09:33;40.58;;;31.23;;
26698;SDS011;14313;50.892;13.756;2022-08-19T02:11:58;40.40;;;30.90;;
26698;SDS011;14313;50.892;13.756;2022-08-19T02:14:23;38.40;;;30.83;;
26698;SDS011;14313;50.892;13.756;2022-08-19T02:16:49;42.88;;;31.15;;
26698;SDS011;14313;50.892;13.756;2022-08-19T02:19:14;37.03;;;29.98;;
26698;SDS011;14313;50.892;13.756;2022-08-19T02:21:39;40.03;;;30.95;;
26698;SDS011;14313;50.892;13.756;2022-08-19T02:24:05;39.15;;;31.38;;
26698;SDS011;14313;50.892;13.756;2022-08-19T02:26:31;37.20;;;28.48;;
26698;SDS011;14313;50.892;13.756;2022-08-19T02:28:57;38.17;;;30.60;;
26698;SDS011;14313;50.892;13.756;2022-08-19T02:31:23;33.20;;;28.50;;
26698;SDS011;14313;50.892;13.756;2022-08-19T02:33:50;35.80;;;28.50;;
26698;SDS011;14313;50.892;13.756;2022-08-19T02:36:17;37.58;;;29.98;;
26698;SDS011;14313;50.892;13.756;2022-08-19T02:38:43;37.63;;;30.35;;
26698;SDS011;14313;50.892;13.756;2022-08-19T02:41:14;36.78;;;29.95;;
26698;SDS011;14313;50.892;13.756;2022-08-19T02:43:42;35.55;;;29.20;;
26698;SDS011;14313;50.892;13.756;2022-08-19T02:46:11;37.95;;;29.35;;
26698;SDS011;14313;50.892;13.756;2022-08-19T02:48:42;37.75;;;29.45;;
26698;SDS011;14313;50.892;13.756;2022-08-19T02:51:08;35.47;;;30.13;;
26698;SDS011;14313;50.892;13.756;2022-08-19T02:53:33;38.28;;;29.55;;
26698;SDS011;14313;50.892;13.756;2022-08-19T02:55:59;37.58;;;31.23;;
26698;SDS011;14313;50.892;13.756;2022-08-19T02:58:24;36.97;;;30.30;;
26698;SDS011;14313;50.892;13.756;2022-08-19T03:00:52;36.17;;;29.67;;
26698;SDS011;14313;50.892;13.756;2022-08-19T03:03:20;39.33;;;29.73;;
26698;SDS011;14313;50.892;13.756;2022-08-19T03:05:46;38.65;;;29.25;;
26698;SDS011;14313;50.892;13.756;2022-08-19T03:08:12;40.28;;;30.42;;
26698;SDS011;14313;50.892;13.756;2022-08-19T03:10:42;39.25;;;32.38;;
26698;SDS011;14313;50.892;13.756;2022-08-19T03:13:10;40.45;;;31.58;;
26698;SDS011;14313;50.892;13.756;2022-08-19T03:15:41;40.65;;;32.30;;
26698;SDS011;14313;50.892;13.756;2022-08-19T03:18:07;43.28;;;33.80;;
26698;SDS011;14313;50.892;13.756;2022-08-19T03:20:32;36.45;;;30.77;;
26698;SDS011;14313;50.892;13.756;2022-08-19T03:22:58;43.75;;;32.80;;
26698;SDS011;14313;50.892;13.756;2022-08-19T03:25:23;38.15;;;32.60;;
26698;SDS011;14313;50.892;13.756;2022-08-19T03:27:49;44.75;;;34.85;;
26698;SDS011;14313;50.892;13.756;2022-08-19T03:30:14;43.70;;;34.47;;
26698;SDS011;14313;50.892;13.756;2022-08-19T03:32:40;43.65;;;32.45;;
26698;SDS011;14313;50.892;13.756;2022-08-19T03:35:05;45.85;;;33.45;;
26698;SDS011;14313;50.892;13.756;2022-08-19T03:37:31;40.40;;;32.92;;
26698;SDS011;14313;50.892;13.756;2022-08-19T03:39:57;43.10;;;32.20;;
26698;SDS011;14313;50.892;13.756;2022-08-19T03:42:22;43.88;;;33.95;;
26698;SDS011;14313;50.892;13.756;2022-08-19T03:44:47;47.10;;;32.97;;
26698;SDS011;14313;50.892;13.756;2022-08-19T03:47:12;45.10;;;33.92;;
26698;SDS011;14313;50.892;13.756;2022-08-19T03:49:41;41.70;;;33.88;;
26698;SDS011;14313;50.892;13.756;2022-08-19T03:52:06;43.40;;;33.40;;
26698;SDS011;14313;50.892;13.756;2022-08-19T03:54:32;47.90;;;35.10;;
26698;SDS011;14313;50.892;13.756;2022-08-19T03:56:58;42.40;;;34.05;;
26698;SDS011;14313;50.892;13.756;2022-08-19T03:59:27;51.45;;;36.35;;
26698;SDS011;14313;50.892;13.756;2022-08-19T04:01:56;50.63;;;36.83;;
26698;SDS011;14313;50.892;13.756;2022-08-19T04:04:23;42.63;;;33.92;;
26698;SDS011;14313;50.892;13.756;2022-08-19T04:06:49;49.15;;;36.30;;
26698;SDS011;14313;50.892;13.756;2022-08-19T04:09:16;47.25;;;36.28;;
26698;SDS011;14313;50.892;13.756;2022-08-19T04:11:43;52.10;;;38.20;;
26698;SDS011;14313;50.892;13.756;2022-08-19T04:14:12;49.70;;;37.55;;
26698;SDS011;14313;50.892;13.756;2022-08-19T04:16:39;49.03;;;38.53;;
26698;SDS011;14313;50.892;13.756;2022-08-19T04:19:05;47.25;;;37.03;;
26698;SDS011;14313;50.892;13.756;2022-08-19T04:21:31;50.20;;;37.00;;
26698;SDS011;14313;50.892;13.756;2022-08-19T04:23:57;47.88;;;38.78;;
26698;SDS011;14313;50.892;13.756;2022-08-19T04:26:24;50.88;;;38.42;;
26698;SDS011;14313;50.892;13.756;2022-08-19T04:28:52;47.28;;;36.72;;
26698;SDS011;14313;50.892;13.756;2022-08-19T04:31:20;48.25;;;37.17;;
26698;SDS011;14313;50.892;13.756;2022-08-19T04:33:47;51.20;;;37.80;;
26698;SDS011;14313;50.892;13.756;2022-08-19T04:36:17;50.22;;;39.33;;
26698;SDS011;14313;50.892;13.756;2022-08-19T04:38:45;51.85;;;38.08;;
26698;SDS011;14313;50.892;13.756;2022-08-19T04:41:11;52.78;;;39.20;;
26698;SDS011;14313;50.892;13.756;2022-08-19T04:43:56;50.67;;;39.03;;
26698;SDS011;14313;50.892;13.756;2022-08-19T04:46:21;55.00;;;39.10;;
26698;SDS011;14313;50.892;13.756;2022-08-19T04:48:46;55.03;;;40.03;;
26698;SDS011;14313;50.892;13.756;2022-08-19T04:51:12;55.47;;;39.33;;
26698;SDS011;14313;50.892;13.756;2022-08-19T04:53:38;50.88;;;38.97;;
26698;SDS011;14313;50.892;13.756;2022-08-19T04:56:09;54.40;;;39.38;;
26698;SDS011;14313;50.892;13.756;2022-08-19T04:58:39;50.92;;;39.65;;
26698;SDS011;14313;50.892;13.756;2022-08-19T05:01:07;55.08;;;38.42;;
26698;SDS011;14313;50.892;13.756;2022-08-19T05:03:33;49.10;;;36.50;;
26698;SDS011;14313;50.892;13.756;2022-08-19T05:06:06;52.83;;;38.03;;
26698;SDS011;14313;50.892;13.756;2022-08-19T05:08:34;48.35;;;36.85;;
26698;SDS011;14313;50.892;13.756;2022-08-19T05:11:01;51.30;;;37.50;;
26698;SDS011;14313;50.892;13.756;2022-08-19T05:13:32;50.95;;;38.35;;
26698;SDS011;14313;50.892;13.756;2022-08-19T05:15:58;59.58;;;45.58;;
26698;SDS011;14313;50.892;13.756;2022-08-19T05:18:24;43.83;;;35.28;;
26698;SDS011;14313;50.892;13.756;2022-08-19T05:21:09;46.10;;;35.53;;
26698;SDS011;14313;50.892;13.756;2022-08-19T05:23:55;50.65;;;37.17;;
26698;SDS011;14313;50.892;13.756;2022-08-19T05:26:20;48.95;;;38.38;;
26698;SDS011;14313;50.892;13.756;2022-08-19T05:28:46;55.38;;;39.38;;
26698;SDS011;14313;50.892;13.756;2022-08-19T05:31:11;49.40;;;35.80;;
26698;SDS011;14313;50.892;13.756;2022-08-19T05:33:37;50.67;;;36.47;;
26698;SDS011;14313;50.892;13.756;2022-08-19T05:36:04;43.97;;;33.83;;
26698;SDS011;14313;50.892;13.756;2022-08-19T05:38:30;44.15;;;34.33;;
26698;SDS011;14313;50.892;13.756;2022-08-19T05:40:56;45.25;;;34.65;;
26698;SDS011;14313;50.892;13.756;2022-08-19T05:43:21;45.17;;;34.35;;
26698;SDS011;14313;50.892;13.756;2022-08-19T05:45:46;44.47;;;36.75;;
26698;SDS011;14313;50.892;13.756;2022-08-19T05:48:12;50.47;;;37.28;;
26698;SDS011;14313;50.892;13.756;2022-08-19T05:50:39;45.40;;;36.45;;
26698;SDS011;14313;50.892;13.756;2022-08-19T05:53:06;48.85;;;36.05;;
26698;SDS011;14313;50.892;13.756;2022-08-19T05:55:31;48.28;;;35.90;;
26698;SDS011;14313;50.892;13.756;2022-08-19T05:57:57;45.35;;;36.05;;
26698;SDS011;14313;50.892;13.756;2022-08-19T06:00:22;49.88;;;38.00;;
26698;SDS011;14313;50.892;13.756;2022-08-19T06:02:48;47.50;;;36.53;;
26698;SDS011;14313;50.892;13.756;2022-08-19T06:05:13;46.58;;;36.92;;
26698;SDS011;14313;50.892;13.756;2022-08-19T06:07:39;42.72;;;33.53;;
26698;SDS011;14313;50.892;13.756;2022-08-19T06:10:06;45.22;;;34.95;;
26698;SDS011;14313;50.892;13.756;2022-08-19T06:12:34;43.63;;;35.28;;
26698;SDS011;14313;50.892;13.756;2022-08-19T06:15:01;41.40;;;33.40;;
26698;SDS011;14313;50.892;13.756;2022-08-19T06:17:29;43.50;;;33.40;;
26698;SDS011;14313;50.892;13.756;2022-08-19T06:19:55;43.92;;;31.15;;
26698;SDS011;14313;50.892;13.756;2022-08-19T06:22:20;40.30;;;31.48;;
26698;SDS011;14313;50.892;13.756;2022-08-19T06:24:46;40.05;;;30.45;;
26698;SDS011;14313;50.892;13.756;2022-08-19T06:27:11;38.92;;;29.48;;
26698;SDS011;14313;50.892;13.756;2022-08-19T06:29:36;38.05;;;28.48;;
26698;SDS011;14313;50.892;13.756;2022-08-19T06:32:03;35.55;;;27.55;;
26698;SDS011;14313;50.892;13.756;2022-08-19T06:34:29;34.90;;;27.67;;
26698;SDS011;14313;50.892;13.756;2022-08-19T06:36:57;32.90;;;26.65;;
26698;SDS011;14313;50.892;13.756;2022-08-19T06:39:27;33.88;;;26.45;;
26698;SDS011;14313;50.892;13.756;2022-08-19T06:41:56;33.00;;;26.23;;
26698;SDS011;14313;50.892;13.756;2022-08-19T06:44:23;30.80;;;26.08;;
26698;SDS011;14313;50.892;13.756;2022-08-19T06:46:51;33.38;;;25.33;;
26698;SDS011;14313;50.892;13.756;2022-08-19T06:49:17;33.10;;;26.52;;
26698;SDS011;14313;50.892;13.756;2022-08-19T06:51:43;31.83;;;24.65;;
26698;SDS011;14313;50.892;13.756;2022-08-19T06:54:12;34.15;;;23.88;;
26698;SDS011;14313;50.892;13.756;2022-08-19T06:56:37;27.35;;;22.83;;
26698;SDS011;14313;50.892;13.756;2022-08-19T06:59:07;30.55;;;23.50;;
26698;SDS011;14313;50.892;13.756;2022-08-19T07:01:52;32.92;;;24.80;;
26698;SDS011;14313;50.892;13.756;2022-08-19T07:04:22;29.08;;;23.38;;
26698;SDS011;14313;50.892;13.756;2022-08-19T07:06:49;30.60;;;23.40;;
26698;SDS011;14313;50.892;13.756;2022-08-19T07:09:20;25.63;;;21.80;;
26698;SDS011;14313;50.892;13.756;2022-08-19T07:11:49;31.77;;;23.77;;
26698;SDS011;14313;50.892;13.756;2022-08-19T07:14:18;30.90;;;24.58;;
26698;SDS011;14313;50.892;13.756;2022-08-19T07:16:46;27.92;;;22.58;;
26698;SDS011;14313;50.892;13.756;2022-08-19T07:19:13;27.52;;;24.02;;
26698;SDS011;14313;50.892;13.756;2022-08-19T07:21:39;28.70;;;23.00;;
26698;SDS011;14313;50.892;13.756;2022-08-19T07:24:06;26.90;;;22.08;;
26698;SDS011;14313;50.892;13.756;2022-08-19T07:26:33;28.48;;;22.45;;
26698;SDS011;14313;50.892;13.756;2022-08-19T07:29:03;26.92;;;22.98;;
26698;SDS011;14313;50.892;13.756;2022-08-19T07:31:29;29.45;;;23.52;;
26698;SDS011;14313;50.892;13.756;2022-08-19T07:33:55;30.95;;;22.92;;
26698;SDS011;14313;50.892;13.756;2022-08-19T07:36:23;29.08;;;23.10;;
26698;SDS011;14313;50.892;13.756;2022-08-19T07:38:57;28.13;;;21.50;;
26698;SDS011;14313;50.892;13.756;2022-08-19T07:41:24;25.27;;;21.45;;
26698;SDS011;14313;50.892;13.756;2022-08-19T07:43:51;30.80;;;22.58;;
26698;SDS011;14313;50.892;13.756;2022-08-19T07:46:18;29.80;;;22.65;;
26698;SDS011;14313;50.892;13.756;2022-08-19T07:48:45;29.75;;;21.42;;
26698;SDS011;14313;50.892;13.756;2022-08-19T07:51:12;29.35;;;23.00;;
26698;SDS011;14313;50.892;13.756;2022-08-19T07:53:38;28.05;;;21.70;;
26698;SDS011;14313;50.892;13.756;2022-08-19T07:56:04;27.08;;;22.00;;
26698;SDS011;14313;50.892;13.756;2022-08-19T07:58:34;27.70;;;22.02;;
26698;SDS011;14313;50.892;13.756;2022-08-19T08:01:03;28.30;;;23.67;;
26698;SDS011;14313;50.892;13.756;2022-08-19T08:03:30;30.10;;;23.38;;
26698;SDS011;14313;50.892;13.756;2022-08-19T08:06:14;27.85;;;22.83;;
26698;SDS011;14313;50.892;13.756;2022-08-19T08:08:58;33.88;;;24.95;;
26698;SDS011;14313;50.892;13.756;2022-08-19T08:11:38;30.65;;;23.30;;
26698;SDS011;14313;50.892;13.756;2022-08-19T08:14:05;34.10;;;25.58;;
26698;SDS011;14313;50.892;13.756;2022-08-19T08:16:34;33.63;;;25.77;;
26698;SDS011;14313;50.892;13.756;2022-08-19T08:19:03;35.00;;;25.27;;
26698;SDS011;14313;50.892;13.756;2022-08-19T08:21:29;35.33;;;25.58;;
26698;SDS011;14313;50.892;13.756;2022-08-19T08:23:54;37.20;;;26.10;;
26698;SDS011;14313;50.892;13.756;2022-08-19T08:26:20;37.28;;;25.83;;
26698;SDS011;14313;50.892;13.756;2022-08-19T08:28:45;31.52;;;24.67;;
26698;SDS011;14313;50.892;13.756;2022-08-19T08:31:12;36.83;;;25.98;;
26698;SDS011;14313;50.892;13.756;2022-08-19T08:33:37;33.17;;;25.48;;
26698;SDS011;14313;50.892;13.756;2022-08-19T08:36:06;32.95;;;24.23;;
26698;SDS011;14313;50.892;13.756;2022-08-19T08:38:32;36.47;;;26.33;;
26698;SDS011;14313;50.892;13.756;2022-08-19T08:40:59;34.20;;;26.38;;
26698;SDS011;14313;50.892;13.756;2022-08-19T08:43:35;33.05;;;24.73;;
26698;SDS011;14313;50.892;13.756;2022-08-19T08:46:11;35.03;;;23.13;;
26698;SDS011;14313;50.892;13.756;2022-08-19T08:48:49;26.20;;;19.40;;
26698;SDS011;14313;50.892;13.756;2022-08-19T08:51:23;32.45;;;22.73;;
26698;SDS011;14313;50.892;13.756;2022-08-19T08:53:57;27.20;;;21.15;;
26698;SDS011;14313;50.892;13.756;2022-08-19T08:56:24;30.85;;;22.88;;
26698;SDS011;14313;50.892;13.756;2022-08-19T09:01:31;29.13;;;21.55;;
26698;SDS011;14313;50.892;13.756;2022-08-19T09:03:57;31.70;;;22.77;;
26698;SDS011;14313;50.892;13.756;2022-08-19T09:06:32;33.33;;;21.77;;
26698;SDS011;14313;50.892;13.756;2022-08-19T09:09:10;30.20;;;22.20;;
26698;SDS011;14313;50.892;13.756;2022-08-19T09:11:44;29.38;;;22.27;;
26698;SDS011;14313;50.892;13.756;2022-08-19T09:17:02;28.80;;;21.90;;
26698;SDS011;14313;50.892;13.756;2022-08-19T09:19:33;25.58;;;20.55;;
26698;SDS011;14313;50.892;13.756;2022-08-19T09:22:00;24.15;;;18.45;;
26698;SDS011;14313;50.892;13.756;2022-08-19T09:24:26;23.50;;;18.45;;
26698;SDS011;14313;50.892;13.756;2022-08-19T09:26:51;23.65;;;18.58;;
26698;SDS011;14313;50.892;13.756;2022-08-19T09:29:16;22.48;;;16.08;;
26698;SDS011;14313;50.892;13.756;2022-08-19T09:31:42;20.40;;;15.93;;
26698;SDS011;14313;50.892;13.756;2022-08-19T09:34:07;18.63;;;14.90;;
26698;SDS011;14313;50.892;13.756;2022-08-19T09:36:33;15.77;;;12.70;;
26698;SDS011;14313;50.892;13.756;2022-08-19T09:39:00;18.52;;;12.20;;
26698;SDS011;14313;50.892;13.756;2022-08-19T09:41:27;18.85;;;12.77;;
26698;SDS011;14313;50.892;13.756;2022-08-19T09:43:53;16.92;;;12.45;;
26698;SDS011;14313;50.892;13.756;2022-08-19T09:46:21;14.60;;;12.07;;
26698;SDS011;14313;50.892;13.756;2022-08-19T09:48:47;11.90;;;10.32;;
26698;SDS011;14313;50.892;13.756;2022-08-19T09:51:16;12.73;;;10.75;;
26698;SDS011;14313;50.892;13.756;2022-08-19T09:53:47;12.18;;;10.02;;
26698;SDS011;14313;50.892;13.756;2022-08-19T09:56:19;10.57;;;9.48;;
26698;SDS011;14313;50.892;13.756;2022-08-19T09:58:45;10.40;;;9.02;;
26698;SDS011;14313;50.892;13.756;2022-08-19T10:01:24;12.55;;;8.75;;
26698;SDS011;14313;50.892;13.756;2022-08-19T10:03:53;9.65;;;8.65;;
26698;SDS011;14313;50.892;13.756;2022-08-19T10:06:23;12.43;;;8.75;;
26698;SDS011;14313;50.892;13.756;2022-08-19T10:08:50;10.40;;;9.30;;
26698;SDS011;14313;50.892;13.756;2022-08-19T10:11:17;11.30;;;10.10;;
26698;SDS011;14313;50.892;13.756;2022-08-19T10:13:45;10.88;;;8.90;;
26698;SDS011;14313;50.892;13.756;2022-08-19T10:16:12;14.55;;;9.65;;
26698;SDS011;14313;50.892;13.756;2022-08-19T10:18:41;9.50;;;8.43;;
26698;SDS011;14313;50.892;13.756;2022-08-19T10:21:11;8.77;;;7.60;;
26698;SDS011;14313;50.892;13.756;2022-08-19T10:23:39;8.20;;;7.43;;
26698;SDS011;14313;50.892;13.756;2022-08-19T10:26:09;8.73;;;7.25;;
26698;SDS011;14313;50.892;13.756;2022-08-19T10:28:36;7.38;;;6.68;;
26698;SDS011;14313;50.892;13.756;2022-08-19T10:31:09;8.65;;;6.97;;
26698;SDS011;14313;50.892;13.756;2022-08-19T10:33:42;8.50;;;7.65;;
26698;SDS011;14313;50.892;13.756;2022-08-19T10:36:09;8.63;;;7.78;;
26698;SDS011;14313;50.892;13.756;2022-08-19T10:38:38;10.73;;;8.32;;
26698;SDS011;14313;50.892;13.756;2022-08-19T10:41:15;7.32;;;6.55;;
26698;SDS011;14313;50.892;13.756;2022-08-19T10:43:42;7.55;;;6.82;;
26698;SDS011;14313;50.892;13.756;2022-08-19T10:46:11;7.78;;;6.38;;
26698;SDS011;14313;50.892;13.756;2022-08-19T10:48:38;6.50;;;5.88;;
26698;SDS011;14313;50.892;13.756;2022-08-19T10:51:04;6.68;;;5.78;;
26698;SDS011;14313;50.892;13.756;2022-08-19T10:53:49;5.53;;;4.50;;
26698;SDS011;14313;50.892;13.756;2022-08-19T10:56:15;4.70;;;4.30;;
26698;SDS011;14313;50.892;13.756;2022-08-19T10:59:00;3.05;;;2.85;;
26698;SDS011;14313;50.892;13.756;2022-08-19T11:01:28;3.83;;;3.50;;
26698;SDS011;14313;50.892;13.756;2022-08-19T11:03:55;3.03;;;2.75;;
26698;SDS011;14313;50.892;13.756;2022-08-19T11:06:22;2.67;;;2.47;;
26698;SDS011;14313;50.892;13.756;2022-08-19T11:08:50;2.22;;;2.00;;
26698;SDS011;14313;50.892;13.756;2022-08-19T11:11:16;3.03;;;2.83;;
26698;SDS011;14313;50.892;13.756;2022-08-19T11:13:42;4.20;;;3.85;;
26698;SDS011;14313;50.892;13.756;2022-08-19T11:16:13;5.78;;;5.28;;
26698;SDS011;14313;50.892;13.756;2022-08-19T11:18:45;7.13;;;6.43;;
26698;SDS011;14313;50.892;13.756;2022-08-19T11:21:17;9.55;;;8.55;;
26698;SDS011;14313;50.892;13.756;2022-08-19T11:23:46;9.25;;;8.35;;
26698;SDS011;14313;50.892;13.756;2022-08-19T11:26:15;9.70;;;8.80;;
26698;SDS011;14313;50.892;13.756;2022-08-19T11:28:41;10.15;;;9.25;;
26698;SDS011;14313;50.892;13.756;2022-08-19T11:31:15;11.10;;;9.63;;
26698;SDS011;14313;50.892;13.756;2022-08-19T11:33:43;10.88;;;9.80;;
26698;SDS011;14313;50.892;13.756;2022-08-19T11:36:09;8.82;;;8.02;;
26698;SDS011;14313;50.892;13.756;2022-08-19T11:38:35;8.05;;;6.88;;
26698;SDS011;14313;50.892;13.756;2022-08-19T11:41:02;7.45;;;6.80;;
26698;SDS011;14313;50.892;13.756;2022-08-19T11:43:32;6.68;;;6.18;;
26698;SDS011;14313;50.892;13.756;2022-08-19T11:45:58;6.60;;;6.00;;
26698;SDS011;14313;50.892;13.756;2022-08-19T11:48:24;6.65;;;6.05;;
26698;SDS011;14313;50.892;13.756;2022-08-19T11:50:51;5.78;;;5.28;;
26698;SDS011;14313;50.892;13.756;2022-08-19T11:53:18;5.60;;;5.10;;
26698;SDS011;14313;50.892;13.756;2022-08-19T11:55:45;5.00;;;4.60;;
26698;SDS011;14313;50.892;13.756;2022-08-19T11:58:12;5.00;;;4.57;;
26698;SDS011;14313;50.892;13.756;2022-08-19T12:00:38;5.85;;;5.35;;
26698;SDS011;14313;50.892;13.756;2022-08-19T12:03:04;5.07;;;4.57;;
26698;SDS011;14313;50.892;13.756;2022-08-19T12:05:30;5.05;;;4.65;;
26698;SDS011;14313;50.892;13.756;2022-08-19T12:07:55;4.97;;;4.03;;
26698;SDS011;14313;50.892;13.756;2022-08-19T12:10:21;4.72;;;4.32;;
26698;SDS011;14313;50.892;13.756;2022-08-19T12:12:47;2.90;;;2.70;;
26698;SDS011;14313;50.892;13.756;2022-08-19T12:15:12;2.45;;;2.28;;
26698;SDS011;14313;50.892;13.756;2022-08-19T12:17:39;2.97;;;2.00;;
26698;SDS011;14313;50.892;13.756;2022-08-19T12:20:05;1.50;;;1.40;;
26698;SDS011;14313;50.892;13.756;2022-08-19T12:22:32;3.42;;;1.80;;
26698;SDS011;14313;50.892;13.756;2022-08-19T12:24:57;1.95;;;1.77;;
26698;SDS011;14313;50.892;13.756;2022-08-19T12:27:23;1.48;;;1.38;;
26698;SDS011;14313;50.892;13.756;2022-08-19T12:29:48;1.50;;;1.40;;
26698;SDS011;14313;50.892;13.756;2022-08-19T12:32:15;2.05;;;1.92;;
26698;SDS011;14313;50.892;13.756;2022-08-19T12:34:41;2.63;;;2.47;;
26698;SDS011;14313;50.892;13.756;2022-08-19T12:37:07;3.15;;;2.85;;
26698;SDS011;14313;50.892;13.756;2022-08-19T12:39:34;3.80;;;3.50;;
26698;SDS011;14313;50.892;13.756;2022-08-19T12:42:00;4.75;;;4.28;;
26698;SDS011;14313;50.892;13.756;2022-08-19T12:44:26;4.28;;;3.97;;
26698;SDS011;14313;50.892;13.756;2022-08-19T12:46:51;4.88;;;4.47;;
26698;SDS011;14313;50.892;13.756;2022-08-19T12:49:16;5.00;;;4.60;;
26698;SDS011;14313;50.892;13.756;2022-08-19T12:51:42;5.88;;;5.38;;
26698;SDS011;14313;50.892;13.756;2022-08-19T12:54:07;6.68;;;5.53;;
26698;SDS011;14313;50.892;13.756;2022-08-19T12:56:33;6.35;;;5.80;;
26698;SDS011;14313;50.892;13.756;2022-08-19T12:59:00;8.73;;;7.82;;
26698;SDS011;14313;50.892;13.756;2022-08-19T13:01:27;8.75;;;7.82;;
26698;SDS011;14313;50.892;13.756;2022-08-19T13:03:55;12.15;;;10.95;;
26698;SDS011;14313;50.892;13.756;2022-08-19T13:06:20;14.60;;;11.48;;
26698;SDS011;14313;50.892;13.756;2022-08-19T13:08:46;15.25;;;13.35;;
26698;SDS011;14313;50.892;13.756;2022-08-19T13:11:13;21.05;;;15.82;;
26698;SDS011;14313;50.892;13.756;2022-08-19T13:13:41;17.60;;;15.80;;
26698;SDS011;14313;50.892;13.756;2022-08-19T13:16:09;18.58;;;16.67;;
26698;SDS011;14313;50.892;13.756;2022-08-19T13:18:36;20.95;;;18.10;;
26698;SDS011;14313;50.892;13.756;2022-08-19T13:21:03;23.92;;;20.10;;
26698;SDS011;14313;50.892;13.756;2022-08-19T13:23:29;22.45;;;19.65;;
26698;SDS011;14313;50.892;13.756;2022-08-19T13:25:59;22.35;;;19.88;;
26698;SDS011;14313;50.892;13.756;2022-08-19T13:28:27;26.48;;;21.20;;
26698;SDS011;14313;50.892;13.756;2022-08-19T13:31:14;21.83;;;19.15;;
26698;SDS011;14313;50.892;13.756;2022-08-19T13:33:59;23.55;;;19.30;;
26698;SDS011;14313;50.892;13.756;2022-08-19T13:36:25;22.65;;;19.65;;
26698;SDS011;14313;50.892;13.756;2022-08-19T13:38:50;21.38;;;19.15;;
26698;SDS011;14313;50.892;13.756;2022-08-19T13:41:16;20.35;;;18.25;;
26698;SDS011;14313;50.892;13.756;2022-08-19T13:43:43;20.70;;;18.45;;
26698;SDS011;14313;50.892;13.756;2022-08-19T13:46:09;22.17;;;19.80;;
26698;SDS011;14313;50.892;13.756;2022-08-19T13:48:38;26.17;;;21.00;;
26698;SDS011;14313;50.892;13.756;2022-08-19T13:51:04;27.77;;;21.55;;
26698;SDS011;14313;50.892;13.756;2022-08-19T13:53:30;24.35;;;20.80;;
26698;SDS011;14313;50.892;13.756;2022-08-19T13:55:55;26.58;;;20.98;;
26698;SDS011;14313;50.892;13.756;2022-08-19T13:58:21;31.05;;;23.00;;
26698;SDS011;14313;50.892;13.756;2022-08-19T14:00:47;24.55;;;21.95;;
26698;SDS011;14313;50.892;13.756;2022-08-19T14:03:13;24.73;;;21.88;;
26698;SDS011;14313;50.892;13.756;2022-08-19T14:05:39;28.50;;;22.63;;
26698;SDS011;14313;50.892;13.756;2022-08-19T14:08:04;26.70;;;23.80;;
26698;SDS011;14313;50.892;13.756;2022-08-19T14:10:30;25.15;;;22.00;;
26698;SDS011;14313;50.892;13.756;2022-08-19T14:12:58;27.00;;;24.13;;
26698;SDS011;14313;50.892;13.756;2022-08-19T14:15:25;27.30;;;22.83;;
26698;SDS011;14313;50.892;13.756;2022-08-19T14:17:52;28.33;;;24.17;;
26698;SDS011;14313;50.892;13.756;2022-08-19T14:20:18;28.80;;;24.33;;
26698;SDS011;14313;50.892;13.756;2022-08-19T14:22:44;29.92;;;24.67;;